createdAt,value
2024-05-09T00:02:04.615Z,48.80
2024-05-09T00:04:40.666Z,48.80
2024-05-09T00:07:16.655Z,48.90
2024-05-09T00:09:52.909Z,48.90
2024-05-09T00:12:28.949Z,49.00
2024-05-09T00:15:05.663Z,49.00
2024-05-09T00:17:41.904Z,49.10
2024-05-09T00:20:24.399Z,49.20
2024-05-09T00:23:06.790Z,49.30
2024-05-09T00:25:44.092Z,49.30
2024-05-09T00:28:20.310Z,49.40
2024-05-09T00:30:56.362Z,49.40
2024-05-09T00:33:32.461Z,49.40
2024-05-09T00:36:08.570Z,49.40
2024-05-09T00:38:45.531Z,49.50
2024-05-09T00:41:21.616Z,49.70
2024-05-09T00:43:57.780Z,49.90
2024-05-09T00:46:33.810Z,49.90
2024-05-09T00:49:10.144Z,50.00
2024-05-09T00:51:46.284Z,50.20
2024-05-09T00:54:23.353Z,50.20
2024-05-09T00:56:59.617Z,50.40
2024-05-09T00:59:35.883Z,50.40
2024-05-09T01:02:12.643Z,50.60
2024-05-09T01:04:50.183Z,50.70
2024-05-09T01:07:26.375Z,50.90
2024-05-09T01:10:02.436Z,50.90
2024-05-09T01:12:38.913Z,51.10
2024-05-09T01:15:15.056Z,51.10
2024-05-09T01:17:51.597Z,51.20
2024-05-09T01:20:37.248Z,51.30
2024-05-09T01:23:18.030Z,51.40
2024-05-09T01:25:54.160Z,51.50
2024-05-09T01:28:30.222Z,51.60
2024-05-09T01:31:06.344Z,51.70
2024-05-09T01:33:45.583Z,51.80
2024-05-09T01:36:21.726Z,51.80
2024-05-09T01:38:57.880Z,52.00
2024-05-09T01:41:34.007Z,52.10
2024-05-09T01:44:10.196Z,52.20
2024-05-09T01:46:46.308Z,52.30
2024-05-09T01:49:22.515Z,52.40
2024-05-09T01:51:58.588Z,52.40
2024-05-09T01:54:34.586Z,52.50
2024-05-09T01:57:10.581Z,52.60
2024-05-09T01:59:46.801Z,52.80
2024-05-09T02:02:22.987Z,52.90
2024-05-09T02:04:59.107Z,53.20
2024-05-09T02:07:35.450Z,53.30
2024-05-09T02:10:16.733Z,53.30
2024-05-09T02:12:59.321Z,53.30
2024-05-09T02:15:35.465Z,53.60
2024-05-09T02:18:11.999Z,53.40
2024-05-09T02:20:48.826Z,53.70
2024-05-09T02:23:24.845Z,53.80
2024-05-09T02:26:00.901Z,53.90
2024-05-09T02:28:36.977Z,54.00
2024-05-09T02:31:13.415Z,54.10
2024-05-09T02:33:49.700Z,54.20
2024-05-09T02:36:26.035Z,54.30
2024-05-09T02:39:02.183Z,54.20
2024-05-09T02:41:38.216Z,54.20
2024-05-09T02:44:14.403Z,54.10
2024-05-09T02:46:50.457Z,54.90
2024-05-09T02:49:26.572Z,55.00
2024-05-09T02:52:02.758Z,55.20
2024-05-09T02:54:38.819Z,55.30
2024-05-09T02:57:14.802Z,55.40
2024-05-09T02:59:50.816Z,55.50
2024-05-09T03:02:27.139Z,55.70
2024-05-09T03:05:03.433Z,55.90
2024-05-09T03:07:39.444Z,56.10
2024-05-09T03:10:22.239Z,56.50
2024-05-09T03:13:07.354Z,56.70
2024-05-09T03:15:44.620Z,56.70
2024-05-09T03:18:20.868Z,56.80
2024-05-09T03:20:56.975Z,56.90
2024-05-09T03:23:32.999Z,56.80
2024-05-09T03:26:14.075Z,56.70
2024-05-09T03:28:50.073Z,56.50
2024-05-09T03:31:26.134Z,56.40
2024-05-09T03:34:02.668Z,56.30
2024-05-09T03:36:43.174Z,56.40
2024-05-09T03:39:19.177Z,56.20
2024-05-09T03:41:55.263Z,56.20
2024-05-09T03:44:31.354Z,56.40
2024-05-09T03:47:07.495Z,56.50
2024-05-09T03:49:43.600Z,56.60
2024-05-09T03:52:19.827Z,56.80
2024-05-09T03:54:56.016Z,57.20
2024-05-09T03:57:32.039Z,56.80
2024-05-09T04:00:17.759Z,56.70
2024-05-09T04:02:59.719Z,56.60
2024-05-09T04:05:36.788Z,56.70
2024-05-09T04:08:12.979Z,56.70
2024-05-09T04:10:49.121Z,56.80
2024-05-09T04:13:25.187Z,56.80
2024-05-09T04:16:01.177Z,56.90
2024-05-09T04:18:37.784Z,56.80
2024-05-09T04:21:13.902Z,56.70
2024-05-09T04:23:49.938Z,56.90
2024-05-09T04:26:25.949Z,57.20
2024-05-09T04:29:02.547Z,57.20
2024-05-09T04:31:38.691Z,57.20
2024-05-09T04:34:14.903Z,57.30
2024-05-09T04:36:50.990Z,57.30
2024-05-09T04:39:27.520Z,57.30
2024-05-09T04:42:03.657Z,57.40
2024-05-09T04:44:39.657Z,57.50
2024-05-09T04:47:15.783Z,57.60
2024-05-09T04:49:51.873Z,57.60
2024-05-09T04:52:29.217Z,57.60
2024-05-09T04:55:05.729Z,57.90
2024-05-09T04:57:41.747Z,58.20
2024-05-09T05:00:26.094Z,58.60
2024-05-09T05:03:13.914Z,59.30
2024-05-09T05:05:51.820Z,59.70
2024-05-09T05:08:27.895Z,59.70
2024-05-09T05:11:04.127Z,60.10
2024-05-09T05:13:41.652Z,59.90
2024-05-09T05:16:17.788Z,59.50
2024-05-09T05:18:53.881Z,59.30
2024-05-09T05:21:30.083Z,59.20
2024-05-09T05:24:06.406Z,60.40
2024-05-09T05:26:42.489Z,61.20
2024-05-09T05:29:20.930Z,60.60
2024-05-09T05:31:57.194Z,61.70
2024-05-09T05:34:33.412Z,61.10
2024-05-09T05:37:09.403Z,61.30
2024-05-09T05:39:45.391Z,61.20
2024-05-09T05:42:23.079Z,61.00
2024-05-09T05:44:59.064Z,61.00
2024-05-09T05:47:35.242Z,61.00
2024-05-09T05:50:23.631Z,61.10
2024-05-09T05:53:08.811Z,60.90
2024-05-09T05:55:45.521Z,61.30
2024-05-09T05:58:22.494Z,61.70
2024-05-09T06:00:58.622Z,61.90
2024-05-09T06:03:34.826Z,62.40
2024-05-09T06:06:13.473Z,62.50
2024-05-09T06:08:49.533Z,63.60
2024-05-09T06:11:25.724Z,65.40
2024-05-09T06:14:01.849Z,66.70
2024-05-09T06:16:37.897Z,66.20
2024-05-09T06:19:14.160Z,65.70
2024-05-09T06:21:50.267Z,65.80
2024-05-09T06:24:26.298Z,66.50
2024-05-09T06:27:03.806Z,65.90
2024-05-09T06:29:39.954Z,65.60
2024-05-09T06:32:16.410Z,64.80
2024-05-09T06:34:52.494Z,64.10
2024-05-09T06:37:28.501Z,62.90
2024-05-09T06:40:07.295Z,62.50
2024-05-09T06:42:43.462Z,62.00
2024-05-09T06:45:19.520Z,61.30
2024-05-09T06:47:55.711Z,60.70
2024-05-09T06:50:37.435Z,60.60
2024-05-09T06:53:15.964Z,60.50
2024-05-09T06:55:52.105Z,59.40
2024-05-09T06:58:28.118Z,58.90
2024-05-09T07:01:04.333Z,58.60
2024-05-09T07:03:41.830Z,58.10
2024-05-09T07:06:17.893Z,56.10
2024-05-09T07:08:53.968Z,53.90
2024-05-09T07:11:31.510Z,53.00
2024-05-09T07:14:07.656Z,52.70
2024-05-09T07:16:43.707Z,51.60
2024-05-09T07:19:20.001Z,51.30
2024-05-09T07:21:56.400Z,51.00
2024-05-09T07:24:32.524Z,50.10
2024-05-09T07:27:09.680Z,49.80
2024-05-09T07:29:45.735Z,49.30
2024-05-09T07:32:21.907Z,48.10
2024-05-09T07:34:58.622Z,47.80
2024-05-09T07:37:35.052Z,47.60
2024-05-09T07:40:17.688Z,46.40
2024-05-09T07:43:00.515Z,46.40
2024-05-09T07:45:48.409Z,44.90
2024-05-09T07:50:01.333Z,44.20
2024-05-09T07:54:05.335Z,43.60
2024-05-09T07:56:42.164Z,43.60
2024-05-09T07:59:18.287Z,43.80
2024-05-09T08:01:54.415Z,43.50
2024-05-09T08:04:30.568Z,42.80
2024-05-09T08:07:06.747Z,42.20
2024-05-09T08:09:42.870Z,42.30
2024-05-09T08:12:18.928Z,41.90
2024-05-09T08:14:56.343Z,41.90
2024-05-09T08:17:32.483Z,41.90
2024-05-09T08:20:09.835Z,41.40
2024-05-09T08:22:47.473Z,41.30
2024-05-09T08:25:23.508Z,42.30
2024-05-09T08:27:59.725Z,41.00
2024-05-09T08:30:37.566Z,40.70
2024-05-09T08:33:14.371Z,40.20
2024-05-09T08:35:50.468Z,40.30
2024-05-09T08:38:26.460Z,40.30
2024-05-09T08:41:04.437Z,40.50
2024-05-09T08:43:43.255Z,40.20
2024-05-09T08:46:19.420Z,39.70
2024-05-09T08:48:57.412Z,39.10
2024-05-09T08:51:33.605Z,39.20
2024-05-09T08:54:09.627Z,39.20
2024-05-09T08:56:48.236Z,39.00
2024-05-09T08:59:38.621Z,38.90
2024-05-09T09:02:15.004Z,38.40
2024-05-09T09:04:58.593Z,38.40
2024-05-09T09:07:35.202Z,37.90
2024-05-09T09:10:17.688Z,36.70
2024-05-09T09:13:00.057Z,36.50
2024-05-09T09:15:49.995Z,35.20
2024-05-09T09:18:27.623Z,35.10
2024-05-09T09:21:04.213Z,34.90
2024-05-09T09:23:40.246Z,33.70
2024-05-09T09:26:17.741Z,34.50
2024-05-09T09:28:53.807Z,34.20
2024-05-09T09:31:31.078Z,33.30
2024-05-09T09:34:08.838Z,33.80
2024-05-09T09:36:45.479Z,33.10
2024-05-09T09:39:27.596Z,33.50
2024-05-09T09:42:05.789Z,32.60
2024-05-09T09:44:47.821Z,32.30
2024-05-09T09:47:28.341Z,32.50
2024-05-09T09:50:11.819Z,32.30
2024-05-09T09:52:54.995Z,32.10
2024-05-09T09:55:33.001Z,31.90
2024-05-09T09:58:13.430Z,31.30
2024-05-09T10:00:50.608Z,30.80
2024-05-09T10:03:27.449Z,30.30
2024-05-09T10:06:04.739Z,30.40
2024-05-09T10:08:41.719Z,30.60
2024-05-09T10:11:22.086Z,30.10
2024-05-09T10:13:58.213Z,30.30
2024-05-09T10:16:35.523Z,30.10
2024-05-09T10:19:27.825Z,30.20
2024-05-09T10:22:04.597Z,29.80
2024-05-09T10:24:48.239Z,30.20
2024-05-09T10:27:28.992Z,30.00
2024-05-09T10:30:11.528Z,30.40
2024-05-09T10:32:54.123Z,30.00
2024-05-09T10:35:32.142Z,29.90
2024-05-09T10:38:08.873Z,29.70
2024-05-09T10:40:46.493Z,28.90
2024-05-09T10:43:23.174Z,28.90
2024-05-09T10:45:59.297Z,29.50
2024-05-09T10:48:37.945Z,29.30
2024-05-09T10:51:14.175Z,29.00
2024-05-09T10:53:50.768Z,28.80
2024-05-09T10:56:26.781Z,28.80
2024-05-09T10:59:06.135Z,28.50
2024-05-09T11:01:42.295Z,28.80
2024-05-09T11:04:18.492Z,29.20
2024-05-09T11:06:55.572Z,29.40
2024-05-09T11:09:36.197Z,29.40
2024-05-09T11:12:12.628Z,29.00
2024-05-09T11:14:55.093Z,28.60
2024-05-09T11:17:37.570Z,28.80
2024-05-09T11:20:19.903Z,28.80
2024-05-09T11:23:06.768Z,28.60
2024-05-09T11:25:52.365Z,28.30
2024-05-09T11:28:29.127Z,28.40
2024-05-09T11:31:07.876Z,29.00
2024-05-09T11:33:47.176Z,28.80
2024-05-09T11:36:23.373Z,28.60
2024-05-09T11:38:59.388Z,28.30
2024-05-09T11:41:35.973Z,27.90
2024-05-09T11:44:13.165Z,27.90
2024-05-09T11:46:49.368Z,28.50
2024-05-09T11:49:26.908Z,27.70
2024-05-09T11:52:03.294Z,27.50
2024-05-09T11:54:39.389Z,27.50
2024-05-09T11:57:15.813Z,27.20
2024-05-09T11:59:51.831Z,28.10
2024-05-09T12:02:28.055Z,27.20
2024-05-09T12:05:04.607Z,27.00
2024-05-09T12:07:40.853Z,27.30
2024-05-09T12:10:22.248Z,27.50
2024-05-09T12:13:02.884Z,27.50
2024-05-09T12:15:39.885Z,26.90
2024-05-09T12:18:15.991Z,27.30
2024-05-09T12:20:52.018Z,26.50
2024-05-09T12:23:28.024Z,25.70
2024-05-09T12:26:04.119Z,26.50
2024-05-09T12:28:40.135Z,26.90
2024-05-09T12:31:16.164Z,27.30
2024-05-09T12:33:54.457Z,26.60
2024-05-09T12:36:33.348Z,27.00
2024-05-09T12:39:09.978Z,26.10
2024-05-09T12:41:46.023Z,26.50
2024-05-09T12:44:22.038Z,26.30
2024-05-09T12:46:58.103Z,25.80
2024-05-09T12:49:34.300Z,26.00
2024-05-09T12:52:10.460Z,25.60
2024-05-09T12:54:46.525Z,25.90
2024-05-09T12:57:22.695Z,25.60
2024-05-09T12:59:59.609Z,26.40
2024-05-09T13:02:35.774Z,25.90
2024-05-09T13:05:12.108Z,25.60
2024-05-09T13:07:48.177Z,25.20
2024-05-09T13:10:31.633Z,25.40
2024-05-09T13:13:10.603Z,25.20
2024-05-09T13:15:46.953Z,25.70
2024-05-09T13:18:22.978Z,24.90
2024-05-09T13:20:58.989Z,25.40
2024-05-09T13:23:35.735Z,25.20
2024-05-09T13:26:11.739Z,25.10
2024-05-09T13:28:47.802Z,24.90
2024-05-09T13:31:23.957Z,25.20
2024-05-09T13:34:00.244Z,25.60
2024-05-09T13:36:36.470Z,24.80
2024-05-09T13:39:12.550Z,24.60
2024-05-09T13:41:48.571Z,24.50
2024-05-09T13:44:24.812Z,24.70
2024-05-09T13:47:00.885Z,24.60
2024-05-09T13:49:37.089Z,24.50
2024-05-09T13:52:13.380Z,24.70
2024-05-09T13:54:49.491Z,24.80
2024-05-09T13:57:26.104Z,25.10
2024-05-09T14:00:03.606Z,25.20
2024-05-09T14:02:47.515Z,24.70
2024-05-09T14:05:23.680Z,25.00
2024-05-09T14:08:00.781Z,24.80
2024-05-09T14:10:44.285Z,24.70
2024-05-09T14:13:21.036Z,24.20
2024-05-09T14:15:57.585Z,23.90
2024-05-09T14:18:34.285Z,24.30
2024-05-09T14:21:10.419Z,24.40
2024-05-09T14:23:46.436Z,23.60
2024-05-09T14:26:22.529Z,23.90
2024-05-09T14:28:58.642Z,23.90
2024-05-09T14:31:36.948Z,23.70
2024-05-09T14:34:14.993Z,24.20
2024-05-09T14:36:51.259Z,24.30
2024-05-09T14:39:27.284Z,23.60
2024-05-09T14:42:03.422Z,24.10
2024-05-09T14:44:39.439Z,24.30
2024-05-09T14:47:17.173Z,24.30
2024-05-09T14:49:53.419Z,24.30
2024-05-09T14:52:29.455Z,23.80
2024-05-09T14:55:07.079Z,24.00
2024-05-09T14:57:44.044Z,23.80
2024-05-09T15:00:26.320Z,24.20
2024-05-09T15:03:08.958Z,23.60
2024-05-09T15:05:45.316Z,23.70
2024-05-09T15:08:21.529Z,23.80
2024-05-09T15:10:57.793Z,23.60
2024-05-09T15:13:34.038Z,23.40
2024-05-09T15:16:10.134Z,23.80
2024-05-09T15:18:46.423Z,23.10
2024-05-09T15:21:22.549Z,23.20
2024-05-09T15:23:58.563Z,22.70
2024-05-09T15:26:34.613Z,23.10
2024-05-09T15:29:10.701Z,22.80
2024-05-09T15:31:46.739Z,22.70
2024-05-09T15:34:22.778Z,23.00
2024-05-09T15:36:58.977Z,22.90
2024-05-09T15:39:35.070Z,22.50
2024-05-09T15:42:12.266Z,22.10
2024-05-09T15:44:52.847Z,22.50
2024-05-09T15:47:28.949Z,22.70
2024-05-09T15:50:09.792Z,22.90
2024-05-09T15:52:50.748Z,22.90
2024-05-09T15:55:28.000Z,22.70
2024-05-09T15:58:05.175Z,22.50
2024-05-09T16:00:44.781Z,22.60
2024-05-09T16:03:22.502Z,22.40
2024-05-09T16:05:58.817Z,22.20
2024-05-09T16:08:37.083Z,22.00
2024-05-09T16:11:16.705Z,21.70
2024-05-09T16:13:52.790Z,21.60
2024-05-09T16:16:28.952Z,21.30
2024-05-09T16:19:05.215Z,21.50
2024-05-09T16:21:41.296Z,21.20
2024-05-09T16:24:17.309Z,21.30
2024-05-09T16:26:53.715Z,21.20
2024-05-09T16:29:29.839Z,21.40
2024-05-09T16:32:06.421Z,21.70
2024-05-09T16:34:42.480Z,21.60
2024-05-09T16:37:18.642Z,21.70
2024-05-09T16:39:54.712Z,21.50
2024-05-09T16:42:31.615Z,21.50
2024-05-09T16:45:07.908Z,21.30
2024-05-09T16:47:43.971Z,21.70
2024-05-09T16:50:26.415Z,21.60
2024-05-09T16:53:07.579Z,21.60
2024-05-09T16:55:43.684Z,21.40
2024-05-09T16:58:19.800Z,21.80
2024-05-09T17:00:56.102Z,21.80
2024-05-09T17:03:32.391Z,21.90
2024-05-09T17:06:10.522Z,22.10
2024-05-09T17:08:46.548Z,22.30
2024-05-09T17:11:22.662Z,22.00
2024-05-09T17:13:58.702Z,22.20
2024-05-09T17:16:35.458Z,22.30
2024-05-09T17:19:11.708Z,22.50
2024-05-09T17:21:47.860Z,22.50
2024-05-09T17:24:23.849Z,22.60
2024-05-09T17:27:00.203Z,22.80
2024-05-09T17:29:37.454Z,22.70
2024-05-09T17:32:13.639Z,22.80
2024-05-09T17:34:49.776Z,22.90
2024-05-09T17:37:26.844Z,23.00
2024-05-09T17:40:06.654Z,23.10
2024-05-09T17:42:45.178Z,23.20
2024-05-09T17:45:21.188Z,23.40
2024-05-09T17:47:57.507Z,23.60
2024-05-09T17:50:36.449Z,23.50
2024-05-09T17:53:13.781Z,23.20
2024-05-09T17:55:49.840Z,23.20
2024-05-09T17:58:26.280Z,23.30
2024-05-09T18:01:02.503Z,23.80
2024-05-09T18:03:39.569Z,23.70
2024-05-09T18:06:16.669Z,23.70
2024-05-09T18:08:52.696Z,24.00
2024-05-09T18:11:28.707Z,24.20
2024-05-09T18:14:04.724Z,24.40
2024-05-09T18:16:40.742Z,24.60
2024-05-09T18:19:17.026Z,24.80
2024-05-09T18:21:53.930Z,24.80
2024-05-09T18:24:29.918Z,24.90
2024-05-09T18:27:06.192Z,25.40
2024-05-09T18:29:42.175Z,25.20
2024-05-09T18:32:18.165Z,25.00
2024-05-09T18:34:54.170Z,25.20
2024-05-09T18:37:30.425Z,25.30
2024-05-09T18:40:11.762Z,25.40
2024-05-09T18:42:48.016Z,25.60
2024-05-09T18:45:24.010Z,25.90
2024-05-09T18:48:00.284Z,25.80
2024-05-09T18:50:39.944Z,25.80
2024-05-09T18:53:17.282Z,25.90
2024-05-09T18:55:53.393Z,26.00
2024-05-09T18:58:29.513Z,26.00
2024-05-09T19:01:06.189Z,26.10
2024-05-09T19:03:42.841Z,26.30
2024-05-09T19:06:21.949Z,26.30
2024-05-09T19:08:59.998Z,26.80
2024-05-09T19:11:36.039Z,26.80
2024-05-09T19:14:12.089Z,26.60
2024-05-09T19:16:48.111Z,26.70
2024-05-09T19:19:24.208Z,26.70
2024-05-09T19:22:00.395Z,26.80
2024-05-09T19:24:36.463Z,27.10
2024-05-09T19:27:12.643Z,26.90
2024-05-09T19:29:48.625Z,27.00
2024-05-09T19:32:24.782Z,27.10
2024-05-09T19:35:00.863Z,27.20
2024-05-09T19:37:36.926Z,27.20
2024-05-09T19:40:20.864Z,27.30
2024-05-09T19:43:05.809Z,27.40
2024-05-09T19:45:43.484Z,27.40
2024-05-09T19:48:21.018Z,27.50
2024-05-09T19:50:57.377Z,27.70
2024-05-09T19:53:33.440Z,28.60
2024-05-09T19:56:09.487Z,27.80
2024-05-09T19:58:46.240Z,27.80
2024-05-09T20:01:22.336Z,27.90
2024-05-09T20:03:59.239Z,28.00
2024-05-09T20:06:37.627Z,28.00
2024-05-09T20:09:14.004Z,28.00
2024-05-09T20:11:50.018Z,28.00
2024-05-09T20:14:26.079Z,28.30
2024-05-09T20:17:02.146Z,28.50
2024-05-09T20:19:38.365Z,28.60
2024-05-09T20:22:14.490Z,28.60
2024-05-09T20:24:50.532Z,28.70
2024-05-09T20:27:26.574Z,28.70
2024-05-09T20:30:05.323Z,28.80
2024-05-09T20:32:42.680Z,28.90
2024-05-09T20:35:18.794Z,29.00
2024-05-09T20:37:54.834Z,29.10
2024-05-09T20:40:35.130Z,29.20
2024-05-09T20:43:14.117Z,29.20
2024-05-09T20:45:50.147Z,29.40
2024-05-09T20:48:26.443Z,29.40
2024-05-09T20:51:02.560Z,29.50
2024-05-09T20:53:38.550Z,29.70
2024-05-09T20:56:14.524Z,29.80
2024-05-09T20:58:50.509Z,29.80
2024-05-09T21:01:26.622Z,29.90
2024-05-09T21:04:02.813Z,29.90
2024-05-09T21:06:38.980Z,30.00
2024-05-09T21:09:15.101Z,30.00
2024-05-09T21:11:51.709Z,30.00
2024-05-09T21:14:27.834Z,30.20
2024-05-09T21:17:04.128Z,30.30
2024-05-09T21:19:40.214Z,30.40
2024-05-09T21:22:16.402Z,30.60
2024-05-09T21:24:52.510Z,30.80
2024-05-09T21:27:28.641Z,30.90
2024-05-09T21:30:07.773Z,31.10
2024-05-09T21:32:46.239Z,31.20
2024-05-09T21:35:22.339Z,31.30
2024-05-09T21:37:58.434Z,31.20
2024-05-09T21:40:36.179Z,31.20
2024-05-09T21:43:14.359Z,31.30
2024-05-09T21:45:50.503Z,31.40
2024-05-09T21:48:26.645Z,31.40
2024-05-09T21:51:02.715Z,31.50
2024-05-09T21:53:40.511Z,31.50
2024-05-09T21:56:16.507Z,31.70
2024-05-09T21:58:52.620Z,31.70
2024-05-09T22:01:28.776Z,31.80
2024-05-09T22:04:05.065Z,31.80
2024-05-09T22:06:41.179Z,32.10
2024-05-09T22:09:17.185Z,32.10
2024-05-09T22:11:54.443Z,32.10
2024-05-09T22:14:30.765Z,32.20
2024-05-09T22:17:06.769Z,32.20
2024-05-09T22:19:47.115Z,32.20
2024-05-09T22:22:23.164Z,32.30
2024-05-09T22:24:59.239Z,32.40
2024-05-09T22:27:35.358Z,32.50
2024-05-09T22:30:14.797Z,32.70
2024-05-09T22:32:57.036Z,32.90
2024-05-09T22:35:33.362Z,33.00
2024-05-09T22:38:09.492Z,33.20
2024-05-09T22:40:48.798Z,33.20
2024-05-09T22:43:26.096Z,33.10
2024-05-09T22:46:03.220Z,33.10
2024-05-09T22:48:39.587Z,33.30
2024-05-09T22:51:15.685Z,33.30
2024-05-09T22:53:51.678Z,33.30
2024-05-09T22:56:28.583Z,33.40
2024-05-09T22:59:04.622Z,33.40
2024-05-09T23:01:40.710Z,33.50
2024-05-09T23:04:16.847Z,33.60
2024-05-09T23:06:52.922Z,34.10
2024-05-09T23:09:28.909Z,33.80
2024-05-09T23:12:05.676Z,33.80
2024-05-09T23:14:42.617Z,33.90
2024-05-09T23:17:18.905Z,33.90
2024-05-09T23:19:54.938Z,34.00
2024-05-09T23:22:31.275Z,34.00
2024-05-09T23:25:07.616Z,34.10
2024-05-09T23:27:43.636Z,34.10
2024-05-09T23:30:29.156Z,34.30
2024-05-09T23:33:14.127Z,34.20
2024-05-09T23:35:50.581Z,34.40
2024-05-09T23:38:26.576Z,34.50
2024-05-09T23:41:02.609Z,34.60
2024-05-09T23:43:38.645Z,34.70
2024-05-09T23:46:14.709Z,34.70
2024-05-09T23:48:51.681Z,34.80
2024-05-09T23:51:27.731Z,34.80
2024-05-09T23:54:03.887Z,34.80
2024-05-09T23:56:39.877Z,34.80
2024-05-09T23:59:15.870Z,34.90
